createdAt,value
2019-01-12T00:01:50.116Z,-0.97
2019-01-12T00:04:17.195Z,-0.96
2019-01-12T00:06:44.289Z,-0.96
2019-01-12T00:09:12.386Z,-0.96
2019-01-12T00:11:39.710Z,-0.92
2019-01-12T00:14:06.752Z,-0.91
2019-01-12T00:16:33.796Z,-0.90
2019-01-12T00:19:00.842Z,-0.89
2019-01-12T00:21:27.908Z,-0.88
2019-01-12T00:23:54.958Z,-0.86
2019-01-12T00:26:22.002Z,-0.86
2019-01-12T00:28:49.083Z,-0.84
2019-01-12T00:31:16.188Z,-0.83
2019-01-12T00:33:43.217Z,-0.80
2019-01-12T00:36:10.260Z,-0.79
2019-01-12T00:38:37.303Z,-0.77
2019-01-12T00:41:04.350Z,-0.75
2019-01-12T00:43:31.409Z,-0.74
2019-01-12T00:45:58.491Z,-0.73
2019-01-12T00:48:25.564Z,-0.70
2019-01-12T00:50:52.627Z,-0.70
2019-01-12T00:53:19.686Z,-0.68
2019-01-12T00:55:46.781Z,-0.68
2019-01-12T00:58:13.814Z,-0.66
2019-01-12T01:00:40.871Z,-0.65
2019-01-12T01:03:07.937Z,-0.63
2019-01-12T01:05:34.974Z,-0.62
2019-01-12T01:08:02.046Z,-0.61
2019-01-12T01:10:29.116Z,-0.62
2019-01-12T01:12:56.181Z,-0.62
2019-01-12T01:15:23.239Z,-0.60
2019-01-12T01:17:50.344Z,-0.57
2019-01-12T01:20:17.502Z,-0.57
2019-01-12T01:22:44.546Z,-0.57
2019-01-12T01:25:11.696Z,-0.56
2019-01-12T01:27:38.738Z,-0.54
2019-01-12T01:30:09.104Z,-0.52
2019-01-12T01:32:36.159Z,-0.50
2019-01-12T01:35:03.749Z,-0.46
2019-01-12T01:37:30.807Z,-0.46
2019-01-12T01:39:57.843Z,-0.42
2019-01-12T01:42:24.913Z,-0.42
2019-01-12T01:44:51.977Z,-0.39
2019-01-12T01:47:19.035Z,-0.38
2019-01-12T01:49:46.124Z,-0.38
2019-01-12T01:52:13.169Z,-0.36
2019-01-12T01:54:40.201Z,-0.31
2019-01-12T01:57:07.239Z,-0.26
2019-01-12T01:59:34.295Z,-0.26
2019-01-12T02:02:01.334Z,-0.24
2019-01-12T02:04:28.372Z,-0.22
2019-01-12T02:06:55.422Z,-0.22
2019-01-12T02:09:22.472Z,-0.19
2019-01-12T02:11:49.514Z,-0.19
2019-01-12T02:14:16.660Z,-0.18
2019-01-12T02:16:43.688Z,-0.18
2019-01-12T02:19:10.720Z,-0.17
2019-01-12T02:21:37.770Z,-0.18
2019-01-12T02:24:04.817Z,-0.18
2019-01-12T02:26:31.849Z,-0.19
2019-01-12T02:28:58.882Z,-0.17
2019-01-12T02:31:25.941Z,-0.17
2019-01-12T02:33:53.012Z,-0.12
2019-01-12T02:36:20.050Z,-0.12
2019-01-12T02:38:47.082Z,-0.09
2019-01-12T02:41:14.121Z,-0.08
2019-01-12T02:43:41.156Z,-0.06
2019-01-12T02:46:08.180Z,-0.05
2019-01-12T02:48:35.223Z,-0.05
2019-01-12T02:51:02.242Z,-0.02
2019-01-12T02:53:29.267Z,0.03
2019-01-12T02:55:56.289Z,0.04
2019-01-12T02:58:23.333Z,0.06
2019-01-12T03:00:50.401Z,0.06
2019-01-12T03:03:17.454Z,0.07
2019-01-12T03:05:44.473Z,0.07
2019-01-12T03:08:11.574Z,0.11
2019-01-12T03:10:38.544Z,0.13
2019-01-12T03:13:05.606Z,0.13
2019-01-12T03:15:32.648Z,0.16
2019-01-12T03:17:59.698Z,0.17
2019-01-12T03:20:26.745Z,0.17
2019-01-12T03:22:53.810Z,0.19
2019-01-12T03:25:20.853Z,0.19
2019-01-12T03:27:47.891Z,0.20
2019-01-12T03:30:16.579Z,0.22
2019-01-12T03:32:43.646Z,0.21
2019-01-12T03:35:10.752Z,0.25
2019-01-12T03:37:37.816Z,0.28
2019-01-12T03:40:06.527Z,0.28
2019-01-12T03:42:33.538Z,0.30
2019-01-12T03:45:00.599Z,0.30
2019-01-12T03:47:27.626Z,0.31
2019-01-12T03:49:54.683Z,0.31
2019-01-12T03:52:21.729Z,0.31
2019-01-12T03:54:48.776Z,0.31
2019-01-12T03:57:15.818Z,0.31
2019-01-12T03:59:42.846Z,0.32
2019-01-12T04:02:09.866Z,0.34
2019-01-12T04:04:38.027Z,0.34
2019-01-12T04:07:05.134Z,0.33
2019-01-12T04:09:32.168Z,0.36
2019-01-12T04:11:59.202Z,0.37
2019-01-12T04:14:26.233Z,0.38
2019-01-12T04:16:53.346Z,0.38
2019-01-12T04:19:20.366Z,0.43
2019-01-12T04:21:47.431Z,0.43
2019-01-12T04:24:14.448Z,0.42
2019-01-12T04:26:41.492Z,0.40
2019-01-12T04:29:08.509Z,0.41
2019-01-12T04:31:35.535Z,0.41
2019-01-12T04:34:02.564Z,0.39
2019-01-12T04:36:29.602Z,0.39
2019-01-12T04:38:56.649Z,0.38
2019-01-12T04:41:23.676Z,0.41
2019-01-12T04:43:50.722Z,0.42
2019-01-12T04:46:17.759Z,0.43
2019-01-12T04:48:44.791Z,0.46
2019-01-12T04:51:11.828Z,0.46
2019-01-12T04:53:38.973Z,0.47
2019-01-12T04:56:05.994Z,0.47
2019-01-12T04:58:33.031Z,0.48
2019-01-12T05:01:00.060Z,0.48
2019-01-12T05:03:27.119Z,0.50
2019-01-12T05:05:54.158Z,0.50
2019-01-12T05:08:21.202Z,0.49
2019-01-12T05:10:48.218Z,0.48
2019-01-12T05:13:15.253Z,0.46
2019-01-12T05:15:42.306Z,0.46
2019-01-12T05:18:09.345Z,0.47
2019-01-12T05:20:36.389Z,0.49
2019-01-12T05:23:03.419Z,0.50
2019-01-12T05:25:30.445Z,0.52
2019-01-12T05:27:57.477Z,0.53
2019-01-12T05:30:24.520Z,0.55
2019-01-12T05:32:51.541Z,0.57
2019-01-12T05:35:18.633Z,0.59
2019-01-12T05:37:45.683Z,0.58
2019-01-12T05:40:12.877Z,0.60
2019-01-12T05:42:39.950Z,0.62
2019-01-12T05:45:07.452Z,0.62
2019-01-12T05:47:34.563Z,0.63
2019-01-12T05:50:01.641Z,0.64
2019-01-12T05:52:29.005Z,0.64
2019-01-12T05:54:56.111Z,0.65
2019-01-12T05:57:23.172Z,0.65
2019-01-12T05:59:50.299Z,0.66
2019-01-12T06:02:17.321Z,0.68
2019-01-12T06:04:44.394Z,0.72
2019-01-12T06:07:11.453Z,0.75
2019-01-12T06:09:38.532Z,0.73
2019-01-12T06:12:05.588Z,0.71
2019-01-12T06:14:32.675Z,0.73
2019-01-12T06:16:59.750Z,0.73
2019-01-12T06:19:26.789Z,0.72
2019-01-12T06:21:53.842Z,0.72
2019-01-12T06:24:20.874Z,0.73
2019-01-12T06:26:47.894Z,0.73
2019-01-12T06:29:14.957Z,0.74
2019-01-12T06:31:41.966Z,0.78
2019-01-12T06:34:09.005Z,0.79
2019-01-12T06:36:36.075Z,0.81
2019-01-12T06:39:06.912Z,0.84
2019-01-12T06:41:33.993Z,0.85
2019-01-12T06:44:00.982Z,0.85
2019-01-12T06:46:28.037Z,0.86
2019-01-12T06:48:55.068Z,0.87
2019-01-12T06:51:22.106Z,0.85
2019-01-12T06:53:49.198Z,0.85
2019-01-12T06:56:16.218Z,0.88
2019-01-12T06:58:43.276Z,0.86
2019-01-12T07:01:10.327Z,0.85
2019-01-12T07:03:37.368Z,0.85
2019-01-12T07:06:04.422Z,0.85
2019-01-12T07:08:31.796Z,0.84
2019-01-12T07:10:58.837Z,0.85
2019-01-12T07:13:25.875Z,0.87
2019-01-12T07:15:52.972Z,0.87
2019-01-12T07:18:20.006Z,0.90
2019-01-12T07:20:47.064Z,0.91
2019-01-12T07:23:14.111Z,0.91
2019-01-12T07:25:41.159Z,0.92
2019-01-12T07:28:08.183Z,0.95
2019-01-12T07:30:35.217Z,1.06
2019-01-12T07:33:02.261Z,1.16
2019-01-12T07:35:29.316Z,1.26
2019-01-12T07:37:56.357Z,1.37
2019-01-12T07:40:23.415Z,1.48
2019-01-12T07:42:50.441Z,1.70
2019-01-12T07:45:17.481Z,1.74
2019-01-12T07:47:44.501Z,1.67
2019-01-12T07:50:12.816Z,1.67
2019-01-12T07:52:39.857Z,1.81
2019-01-12T07:55:07.136Z,1.82
2019-01-12T07:57:34.188Z,1.84
2019-01-12T08:00:02.262Z,1.95
2019-01-12T08:02:29.298Z,2.05
2019-01-12T08:04:56.329Z,1.91
2019-01-12T08:07:23.371Z,1.74
2019-01-12T08:09:50.421Z,1.62
2019-01-12T08:12:17.441Z,1.55
2019-01-12T08:14:44.478Z,1.49
2019-01-12T08:17:11.559Z,1.43
2019-01-12T08:19:38.590Z,1.43
2019-01-12T08:22:05.634Z,1.42
2019-01-12T08:24:32.682Z,1.43
2019-01-12T08:26:59.758Z,1.43
2019-01-12T08:29:26.781Z,1.42
2019-01-12T08:31:53.831Z,1.44
2019-01-12T08:34:20.901Z,1.47
2019-01-12T08:36:47.921Z,1.49
2019-01-12T08:39:14.985Z,1.51
2019-01-12T08:41:42.038Z,1.52
2019-01-12T08:44:09.064Z,1.54
2019-01-12T08:46:36.090Z,1.56
2019-01-12T08:49:03.141Z,1.60
2019-01-12T08:51:30.178Z,1.61
2019-01-12T08:53:57.250Z,1.61
2019-01-12T08:56:24.345Z,1.61
2019-01-12T08:58:51.371Z,1.60
2019-01-12T09:01:18.398Z,1.58
2019-01-12T09:03:45.440Z,1.57
2019-01-12T09:06:12.508Z,1.57
2019-01-12T09:08:39.540Z,1.56
2019-01-12T09:11:06.620Z,1.55
2019-01-12T09:13:33.655Z,1.55
2019-01-12T09:16:00.726Z,1.55
2019-01-12T09:18:27.798Z,1.55
2019-01-12T09:20:54.858Z,1.56
2019-01-12T09:23:22.759Z,1.55
2019-01-12T09:25:49.820Z,1.55
2019-01-12T09:28:16.866Z,1.55
2019-01-12T09:30:48.402Z,1.55
2019-01-12T09:33:13.161Z,1.55
2019-01-12T09:35:40.294Z,1.57
2019-01-12T09:38:07.354Z,1.61
2019-01-12T09:40:34.383Z,1.62
2019-01-12T09:43:01.434Z,1.68
2019-01-12T09:45:28.458Z,1.73
2019-01-12T09:47:55.498Z,1.77
2019-01-12T09:50:22.587Z,1.80
2019-01-12T09:52:50.088Z,1.80
2019-01-12T09:55:17.144Z,1.80
2019-01-12T09:57:44.190Z,1.80
2019-01-12T10:00:19.293Z,1.81
2019-01-12T10:02:46.465Z,1.80
2019-01-12T10:05:13.513Z,1.82
2019-01-12T10:07:40.555Z,1.83
2019-01-12T10:10:10.429Z,1.84
2019-01-12T10:12:37.489Z,1.83
2019-01-12T10:15:05.124Z,1.85
2019-01-12T10:17:32.180Z,1.91
2019-01-12T10:19:59.220Z,1.94
2019-01-12T10:22:28.635Z,1.98
2019-01-12T10:24:55.239Z,2.01
2019-01-12T10:27:22.294Z,2.06
2019-01-12T10:29:49.384Z,2.09
2019-01-12T10:32:16.413Z,2.10
2019-01-12T10:34:43.473Z,2.12
2019-01-12T10:37:10.551Z,2.13
2019-01-12T10:39:37.629Z,2.13
2019-01-12T10:42:04.679Z,2.13
2019-01-12T10:44:31.707Z,2.14
2019-01-12T10:46:58.761Z,2.22
2019-01-12T10:49:25.819Z,2.30
2019-01-12T10:51:52.882Z,2.36
2019-01-12T10:54:19.935Z,2.40
2019-01-12T10:56:46.975Z,2.41
2019-01-12T10:59:14.032Z,2.41
2019-01-12T11:01:41.108Z,2.44
2019-01-12T11:04:08.132Z,2.47
2019-01-12T11:06:35.174Z,2.49
2019-01-12T11:09:03.796Z,2.48
2019-01-12T11:11:31.475Z,2.49
2019-01-12T11:13:58.532Z,2.47
2019-01-12T11:16:25.630Z,2.49
2019-01-12T11:18:52.689Z,2.53
2019-01-12T11:21:19.786Z,2.52
2019-01-12T11:23:46.849Z,2.52
2019-01-12T11:26:13.917Z,2.50
2019-01-12T11:28:41.081Z,2.50
2019-01-12T11:31:08.453Z,2.48
2019-01-12T11:33:35.530Z,2.50
2019-01-12T11:36:02.597Z,2.54
2019-01-12T11:38:29.675Z,2.54
2019-01-12T11:40:56.769Z,2.52
2019-01-12T11:43:23.877Z,2.52
2019-01-12T11:45:50.946Z,2.52
2019-01-12T11:48:18.016Z,2.52
2019-01-12T11:50:45.102Z,2.50
2019-01-12T11:53:12.228Z,2.51
2019-01-12T11:55:39.324Z,2.50
2019-01-12T11:58:06.369Z,2.48
2019-01-12T12:00:33.422Z,2.51
2019-01-12T12:03:00.489Z,2.47
2019-01-12T12:05:27.533Z,2.47
2019-01-12T12:07:54.864Z,2.46
2019-01-12T12:10:22.067Z,2.44
2019-01-12T12:12:49.141Z,2.43
2019-01-12T12:15:16.942Z,2.38
2019-01-12T12:17:44.025Z,2.41
2019-01-12T12:20:16.359Z,2.46
2019-01-12T12:22:43.397Z,2.51
2019-01-12T12:25:10.462Z,2.55
2019-01-12T12:27:37.506Z,2.60
2019-01-12T12:30:06.501Z,2.63
2019-01-12T12:32:33.564Z,2.62
2019-01-12T12:35:00.621Z,2.61
2019-01-12T12:37:27.668Z,2.59
2019-01-12T12:39:54.743Z,2.57
2019-01-12T12:42:21.869Z,2.55
2019-01-12T12:44:48.940Z,2.56
2019-01-12T12:47:15.985Z,2.59
2019-01-12T12:49:43.088Z,2.60
2019-01-12T12:52:10.145Z,2.65
2019-01-12T12:54:37.244Z,2.68
2019-01-12T12:57:04.327Z,2.70
2019-01-12T12:59:31.409Z,2.70
2019-01-12T13:01:58.507Z,2.70
2019-01-12T13:04:25.597Z,2.72
2019-01-12T13:06:52.701Z,2.71
2019-01-12T13:09:19.788Z,2.70
2019-01-12T13:11:46.903Z,2.69
2019-01-12T13:14:13.998Z,2.71
2019-01-12T13:16:41.111Z,2.71
2019-01-12T13:19:08.176Z,2.67
2019-01-12T13:21:35.287Z,2.63
2019-01-12T13:24:02.410Z,2.60
2019-01-12T13:26:29.456Z,2.57
2019-01-12T13:28:56.556Z,2.55
2019-01-12T13:31:23.728Z,2.52
2019-01-12T13:33:50.959Z,2.49
2019-01-12T13:36:18.082Z,2.49
2019-01-12T13:38:45.232Z,2.47
2019-01-12T13:41:12.334Z,2.46
2019-01-12T13:43:39.484Z,2.47
2019-01-12T13:46:06.578Z,2.48
2019-01-12T13:48:33.690Z,2.47
2019-01-12T13:51:00.808Z,2.47
2019-01-12T13:53:27.914Z,2.50
2019-01-12T13:55:57.296Z,2.51
2019-01-12T13:58:24.397Z,2.54
2019-01-12T14:00:51.558Z,2.55
2019-01-12T14:03:18.923Z,2.53
2019-01-12T14:05:46.305Z,2.52
2019-01-12T14:08:13.424Z,2.52
2019-01-12T14:10:40.557Z,2.52
2019-01-12T14:13:07.982Z,2.48
2019-01-12T14:15:35.314Z,2.48
2019-01-12T14:18:02.630Z,2.48
2019-01-12T14:20:34.706Z,2.46
2019-01-12T14:23:01.815Z,2.46
2019-01-12T14:25:28.947Z,2.47
2019-01-12T14:27:56.016Z,2.46
2019-01-12T14:30:23.093Z,2.45
2019-01-12T14:32:50.240Z,2.44
2019-01-12T14:35:17.536Z,2.40
2019-01-12T14:37:44.647Z,2.36
2019-01-12T14:40:13.916Z,2.32
2019-01-12T14:42:41.321Z,2.27
2019-01-12T14:45:11.737Z,2.24
2019-01-12T14:47:38.813Z,2.22
2019-01-12T14:50:06.777Z,2.21
2019-01-12T14:52:33.853Z,2.19
2019-01-12T14:55:00.981Z,2.17
2019-01-12T14:57:28.117Z,2.18
2019-01-12T14:59:55.250Z,2.16
2019-01-12T15:02:23.197Z,2.16
2019-01-12T15:04:50.430Z,2.15
2019-01-12T15:07:17.543Z,2.13
2019-01-12T15:09:44.625Z,2.10
2019-01-12T15:12:13.606Z,2.07
2019-01-12T15:14:40.604Z,2.06
2019-01-12T15:17:07.699Z,2.04
2019-01-12T15:19:34.851Z,2.03
2019-01-12T15:22:02.012Z,2.03
2019-01-12T15:24:29.097Z,2.05
2019-01-12T15:26:56.241Z,2.02
2019-01-12T15:29:23.366Z,2.01
2019-01-12T15:31:50.488Z,2.02
2019-01-12T15:34:17.594Z,2.02
2019-01-12T15:36:45.142Z,2.01
2019-01-12T15:39:12.291Z,2.01
2019-01-12T15:41:39.426Z,2.05
2019-01-12T15:44:06.576Z,2.18
2019-01-12T15:46:33.687Z,2.52
2019-01-12T15:49:00.869Z,2.76
2019-01-12T15:51:30.749Z,2.97
2019-01-12T15:53:57.891Z,3.36
2019-01-12T15:56:25.011Z,3.63
2019-01-12T15:58:52.144Z,3.69
2019-01-12T16:01:19.306Z,3.37
2019-01-12T16:03:46.442Z,3.07
2019-01-12T16:06:13.607Z,2.79
2019-01-12T16:08:40.711Z,2.61
2019-01-12T16:11:08.108Z,2.47
2019-01-12T16:13:35.230Z,2.35
2019-01-12T16:16:02.397Z,2.26
2019-01-12T16:18:29.783Z,2.19
2019-01-12T16:20:56.936Z,2.14
2019-01-12T16:23:24.077Z,2.11
2019-01-12T16:25:51.309Z,2.06
2019-01-12T16:28:23.251Z,2.03
2019-01-12T16:30:50.519Z,2.03
2019-01-12T16:33:17.824Z,2.03
2019-01-12T16:35:44.924Z,2.03
2019-01-12T16:38:12.094Z,2.01
2019-01-12T16:40:39.236Z,2.00
2019-01-12T16:43:07.394Z,1.97
2019-01-12T16:45:34.537Z,1.98
2019-01-12T16:48:01.993Z,1.97
2019-01-12T16:50:31.173Z,1.97
2019-01-12T16:52:58.586Z,1.95
2019-01-12T16:55:25.732Z,1.95
2019-01-12T16:57:52.892Z,1.95
2019-01-12T17:00:27.622Z,1.95
2019-01-12T17:02:54.784Z,1.96
2019-01-12T17:05:22.032Z,1.98
2019-01-12T17:07:50.327Z,1.96
2019-01-12T17:10:18.434Z,1.94
2019-01-12T17:12:47.548Z,1.94
2019-01-12T17:15:16.593Z,1.93
2019-01-12T17:17:43.750Z,1.95
2019-01-12T17:20:16.263Z,1.93
2019-01-12T17:22:43.622Z,1.92
2019-01-12T17:25:10.755Z,1.92
2019-01-12T17:27:38.232Z,1.92
2019-01-12T17:30:08.838Z,1.92
2019-01-12T17:32:35.983Z,1.93
2019-01-12T17:35:03.940Z,1.96
2019-01-12T17:37:31.059Z,1.97
2019-01-12T17:39:58.214Z,1.97
2019-01-12T17:42:28.181Z,1.98
2019-01-12T17:44:55.294Z,1.98
2019-01-12T17:47:22.472Z,1.99
2019-01-12T17:49:49.623Z,1.99
2019-01-12T17:52:17.039Z,1.98
2019-01-12T17:54:44.185Z,2.02
2019-01-12T17:57:11.335Z,2.02
2019-01-12T17:59:38.761Z,2.00
2019-01-12T18:02:06.006Z,1.98
2019-01-12T18:04:33.189Z,1.99
2019-01-12T18:07:00.314Z,2.11
2019-01-12T18:09:27.549Z,2.16
2019-01-12T18:11:54.719Z,2.20
2019-01-12T18:14:21.905Z,2.20
2019-01-12T18:16:51.066Z,2.30
2019-01-12T18:19:18.198Z,2.29
2019-01-12T18:21:45.359Z,2.27
2019-01-12T18:24:12.488Z,2.21
2019-01-12T18:26:39.687Z,2.15
2019-01-12T18:29:07.102Z,2.09
2019-01-12T18:31:34.265Z,2.04
2019-01-12T18:34:01.464Z,2.02
2019-01-12T18:36:30.458Z,2.02
2019-01-12T18:38:57.637Z,2.00
2019-01-12T18:41:24.853Z,1.98
2019-01-12T18:43:52.033Z,2.00
2019-01-12T18:46:19.190Z,2.00
2019-01-12T18:48:46.825Z,2.01
2019-01-12T18:51:16.369Z,2.03
2019-01-12T18:53:44.937Z,2.02
2019-01-12T18:56:12.544Z,2.00
2019-01-12T18:58:39.892Z,1.99
2019-01-12T19:01:07.134Z,2.00
2019-01-12T19:03:34.768Z,2.00
2019-01-12T19:06:02.217Z,1.98
2019-01-12T19:08:29.455Z,1.98
2019-01-12T19:10:56.672Z,1.93
2019-01-12T19:13:24.280Z,1.92
2019-01-12T19:15:52.885Z,1.88
2019-01-12T19:18:20.913Z,1.83
2019-01-12T19:20:48.535Z,1.80
2019-01-12T19:23:18.826Z,1.76
2019-01-12T19:25:47.692Z,1.71
2019-01-12T19:28:16.092Z,1.69
2019-01-12T19:30:43.465Z,1.68
2019-01-12T19:33:10.848Z,1.67
2019-01-12T19:35:38.281Z,1.66
2019-01-12T19:38:05.823Z,1.65
2019-01-12T19:40:35.131Z,1.62
2019-01-12T19:43:04.704Z,1.60
2019-01-12T19:45:34.348Z,1.59
2019-01-12T19:48:02.115Z,1.56
2019-01-12T19:50:29.478Z,1.55
2019-01-12T19:52:57.220Z,1.54
2019-01-12T19:55:24.579Z,1.50
2019-01-12T19:57:52.333Z,1.48
2019-01-12T20:00:24.753Z,1.48
2019-01-12T20:02:51.983Z,1.46
2019-01-12T20:05:19.262Z,1.45
2019-01-12T20:07:48.016Z,1.43
2019-01-12T20:10:18.493Z,1.42
2019-01-12T20:12:45.776Z,1.43
2019-01-12T20:15:20.684Z,1.42
2019-01-12T20:17:48.807Z,1.41
2019-01-12T20:20:17.431Z,1.38
2019-01-12T20:22:45.028Z,1.37
2019-01-12T20:25:19.601Z,1.35
2019-01-12T20:27:46.858Z,1.33
2019-01-12T20:30:28.052Z,1.32
2019-01-12T20:33:21.074Z,1.31
2019-01-12T20:36:31.321Z,1.30
2019-01-12T20:39:34.027Z,1.27
2019-01-12T20:42:25.614Z,1.32
2019-01-12T20:45:52.884Z,1.29
2019-01-12T20:48:37.263Z,1.28
2019-01-12T20:52:01.510Z,1.27
2019-01-12T20:55:03.568Z,1.25
2019-01-12T20:57:40.634Z,1.24
2019-01-12T21:00:55.227Z,1.26
2019-01-12T21:03:52.352Z,1.25
2019-01-12T21:06:38.708Z,1.25
2019-01-12T21:09:37.504Z,1.25
2019-01-12T21:12:45.232Z,1.22
2019-01-12T21:15:17.820Z,1.20
2019-01-12T21:17:45.628Z,1.20
2019-01-12T21:20:13.016Z,1.20
2019-01-12T21:22:40.358Z,1.19
2019-01-12T21:25:07.873Z,1.18
2019-01-12T21:27:36.628Z,1.17
2019-01-12T21:30:07.813Z,1.18
2019-01-12T21:32:37.784Z,1.17
2019-01-12T21:35:06.922Z,1.18
2019-01-12T21:37:35.605Z,1.20
2019-01-12T21:40:03.998Z,1.20
2019-01-12T21:42:31.244Z,1.21
2019-01-12T21:44:58.542Z,1.23
2019-01-12T21:47:26.807Z,1.25
2019-01-12T21:49:54.017Z,1.23
2019-01-12T21:52:22.507Z,1.22
2019-01-12T21:54:49.725Z,1.22
2019-01-12T21:57:18.953Z,1.21
2019-01-12T21:59:49.112Z,1.23
2019-01-12T22:02:16.379Z,1.25
2019-01-12T22:04:43.589Z,1.25
2019-01-12T22:07:11.139Z,1.23
2019-01-12T22:09:38.375Z,1.20
2019-01-12T22:12:05.569Z,1.20
2019-01-12T22:14:32.758Z,1.20
2019-01-12T22:17:01.307Z,1.19
2019-01-12T22:19:29.446Z,1.21
2019-01-12T22:21:56.625Z,1.21
2019-01-12T22:24:23.914Z,1.20
2019-01-12T22:26:51.150Z,1.19
2019-01-12T22:29:18.405Z,1.17
2019-01-12T22:31:45.611Z,1.17
2019-01-12T22:34:13.889Z,1.17
2019-01-12T22:36:41.064Z,1.16
2019-01-12T22:39:09.049Z,1.19
2019-01-12T22:41:36.740Z,1.18
2019-01-12T22:44:06.480Z,1.17
2019-01-12T22:46:33.690Z,1.17
2019-01-12T22:49:00.887Z,1.17
2019-01-12T22:51:28.088Z,1.17
2019-01-12T22:53:55.243Z,1.17
2019-01-12T22:56:22.721Z,1.15
2019-01-12T22:58:49.931Z,1.16
2019-01-12T23:01:41.479Z,1.15
2019-01-12T23:04:08.975Z,1.16
2019-01-12T23:06:36.210Z,1.15
2019-01-12T23:09:07.952Z,1.15
2019-01-12T23:11:35.173Z,1.14
2019-01-12T23:14:02.300Z,1.13
2019-01-12T23:16:30.468Z,1.13
2019-01-12T23:18:57.681Z,1.13
2019-01-12T23:21:24.965Z,1.14
2019-01-12T23:23:52.150Z,1.14
2019-01-12T23:26:19.283Z,1.16
2019-01-12T23:28:46.440Z,1.20
2019-01-12T23:31:13.565Z,1.22
2019-01-12T23:33:40.703Z,1.21
2019-01-12T23:36:07.843Z,1.22
2019-01-12T23:38:34.981Z,1.25
2019-01-12T23:41:02.142Z,1.27
2019-01-12T23:43:29.288Z,1.27
2019-01-12T23:45:56.467Z,1.29
2019-01-12T23:48:23.588Z,1.30
2019-01-12T23:50:50.723Z,1.29
2019-01-12T23:53:17.846Z,1.31
2019-01-12T23:55:45.053Z,1.31
2019-01-12T23:58:12.250Z,1.28
